Capitol Logistics 363


KSEA
Seattle-Tacoma International Airport
Seattle, Washington, US
KAFW
Fort Worth Alliance Airport
Fort Worth, Texas, US

Activity Log

Date Flight Route Aircraft Duration
02/16/2019 CPX363 SUMMA1 SUMMA J54 BKE J54 BOI J15 JNC ALS PNH MDANO WESAT2 B763 3h 12m
01/30/2019 CPX363 SUMMA1 BKE V4 HOVEL Q154 UKW MOTZA8 B763 3h 10m

Route Details

Aircraft Information
Primary: Boeing 767-300BDSF
Backup: Not Available
Route Data
Distance: 1428nm
Sched. Duration: 3h 10m
Avg. Duration: 3h 11m (+1m)
Times Flown: 2
Recm'd Route: SUMMA1 SUMMA J54 BKE J54 BOI J15 JNC ALS PNH MDANO WESAT2
Planned Altitude: 35,000ft
Origin Wx: KSEA 270053Z 17006KT 10SM FEW032 SCT250 11/04 A3051 RMK AO2 SLP341 T01110039
Dest. Wx: KAFW 270053Z 34009KT 10SM CLR 06/M08 A3039 RMK AO2 SLP300 T00561078
Notes:

Financial History
Total Freight: 214,532lbs
Average Load: 107,266lbs/flt
Fuel Used: 72,419lbs
Avg. Fuel Used: 36,210lbs/flt
Fuel Expense: $81,109
Avg. Fuel Expense: $40,555
Avg. Fuel Cost: $1.12/lbs
Total Gross Income: $276,746
Pilot Pay: $378
Total Expenses: $29,993
Total Revenue: $164,123
Average Revenue: $138,373.14